Time;durP1;ratioP1;P1;durP2;ratioP2;P2;SDS_P1;SDS_P2;PMS_P1;PMS_P2;Temp;Humidity;BMP_temperature;BMP_pressure;BME280_temperature;BME280_humidity;BME280_pressure;Samples;Min_cycle;Max_cycle;Signal;HPM_P1;HPM_P2
2022/01/11 00:00:32;;;;;;;74.00;47.03;;;;;;;1.70;95.25;102811.84;4996743;28;20664;-54
2022/01/11 00:02:59;;;;;;;71.13;44.67;;;;;;;1.51;89.43;102805.41;4993096;28;20220;-55
2022/01/11 00:05:31;;;;;;;74.60;45.43;;;;;;;1.25;91.31;102808.75;4998582;28;20354;-53
2022/01/11 00:07:57;;;;;;;73.73;48.23;;;;;;;0.81;93.85;102821.09;4995238;28;20235;-55
2022/01/11 00:10:28;;;;;;;74.33;47.83;;;;;;;0.97;94.54;102825.69;4996999;28;20309;-56
2022/01/11 00:12:54;;;;;;;74.87;46.13;;;;;;;0.76;96.88;102828.53;4996779;28;20245;-56
2022/01/11 00:15:21;;;;;;;84.07;49.93;;;;;;;0.63;98.79;102831.00;4993288;28;20260;-55
2022/01/11 00:17:47;;;;;;;75.10;47.97;;;;;;;0.40;97.38;102814.72;5000079;28;20332;-55
2022/01/11 00:20:15;;;;;;;70.53;47.00;;;;;;;0.57;98.16;102820.22;4998581;28;20793;-54
2022/01/11 00:24:28;;;;;;;79.70;47.83;;;;;;;0.47;98.54;102818.66;4994925;28;20236;-53
2022/01/11 00:25:36;;;;;;;83.80;49.37;;;;;;;0.62;97.63;102818.88;4989618;28;20260;-54
2022/01/11 00:28:04;;;;;;;78.53;47.93;;;;;;;0.59;97.27;102813.47;4997133;28;20934;-56
2022/01/11 00:30:33;;;;;;;84.43;48.80;;;;;;;0.46;96.35;102807.44;4992912;28;20290;-55
2022/01/11 00:33:03;;;;;;;78.03;49.13;;;;;;;0.58;94.81;102814.25;4993547;28;20236;-53
2022/01/11 00:35:39;;;;;;;80.00;48.67;;;;;;;0.84;94.89;102816.13;4998920;28;20232;-56
2022/01/11 00:38:07;;;;;;;75.57;47.53;;;;;;;0.94;94.38;102814.31;4995423;28;20256;-54
2022/01/11 00:40:34;;;;;;;78.67;48.20;;;;;;;1.16;95.69;102815.88;4998619;28;20644;-55
2022/01/11 00:43:01;;;;;;;82.87;48.17;;;;;;;0.45;92.54;102815.94;4990832;28;20305;-54
2022/01/11 00:45:28;;;;;;;78.63;50.43;;;;;;;0.44;96.80;102819.31;4998369;28;20724;-54
2022/01/11 00:47:55;;;;;;;80.53;49.50;;;;;;;0.23;97.36;102826.38;4997192;28;20256;-55
2022/01/11 00:53:44;;;;;;;77.77;49.07;;;;;;;-0.17;96.65;102832.81;4991335;28;21190;-57
2022/01/11 00:56:10;;;;;;;83.47;49.87;;;;;;;0.04;99.22;102836.13;4990898;28;20251;-55
2022/01/11 00:58:36;;;;;;;80.80;46.87;;;;;;;0.28;99.44;102847.41;4997255;28;20312;-55
2022/01/11 01:01:03;;;;;;;80.47;51.80;;;;;;;-0.08;97.49;102855.84;5003888;28;20236;-55
2022/01/11 01:03:29;;;;;;;82.57;51.30;;;;;;;0.22;100.00;102854.69;4999651;28;20233;-55
2022/01/11 01:05:56;;;;;;;91.03;52.70;;;;;;;-0.18;100.00;102859.41;4998585;28;20300;-54
2022/01/11 01:08:22;;;;;;;83.23;51.87;;;;;;;-0.37;100.00;102866.53;4995017;28;20261;-55
2022/01/11 01:10:50;;;;;;;86.37;53.97;;;;;;;-0.81;100.00;102866.50;4997601;28;20253;-55
2022/01/11 01:13:18;;;;;;;88.77;54.23;;;;;;;-0.54;100.00;102872.94;5007121;28;20236;-56
2022/01/11 01:15:47;;;;;;;91.93;52.63;;;;;;;-0.41;100.00;102869.66;5008230;28;20274;-56
2022/01/11 01:18:14;;;;;;;87.77;54.73;;;;;;;-0.32;100.00;102881.56;4998537;28;20243;-56
2022/01/11 01:20:41;;;;;;;81.03;49.77;;;;;;;0.07;100.00;102881.94;4988170;28;20319;-54
2022/01/11 01:23:08;;;;;;;93.00;54.33;;;;;;;-0.10;100.00;102889.31;4989576;28;20778;-53
2022/01/11 01:25:34;;;;;;;90.23;55.57;;;;;;;-0.54;100.00;102894.47;4993585;28;20760;-56
2022/01/11 01:28:02;;;;;;;94.30;56.53;;;;;;;-0.48;100.00;102899.22;4996519;28;20260;-54
2022/01/11 01:30:28;;;;;;;89.40;51.60;;;;;;;0.17;100.00;102887.00;4995827;28;20232;-54
2022/01/11 01:32:55;;;;;;;93.37;53.37;;;;;;;0.20;100.00;102895.88;4997864;28;20229;-55
2022/01/11 01:35:25;;;;;;;80.67;50.70;;;;;;;0.34;99.98;102886.59;4996375;28;20313;-55
2022/01/11 01:37:51;;;;;;;79.60;50.17;;;;;;;-0.09;96.90;102893.69;4996971;28;20614;-54
2022/01/11 01:40:18;;;;;;;84.60;53.37;;;;;;;-0.40;99.27;102892.97;4999350;28;20314;-55
2022/01/11 01:42:45;;;;;;;90.70;52.63;;;;;;;-0.70;100.00;102900.88;4998295;28;20309;-55
2022/01/11 01:45:15;;;;;;;95.47;53.77;;;;;;;-0.87;100.00;102902.13;4986414;28;20243;-55
2022/01/11 01:47:41;;;;;;;87.20;52.13;;;;;;;-0.08;100.00;102900.63;4999010;28;20812;-54
2022/01/11 01:50:09;;;;;;;93.03;52.80;;;;;;;-0.72;100.00;102903.34;4994438;28;20863;-56
2022/01/11 01:52:35;;;;;;;98.30;55.17;;;;;;;0.13;100.00;102895.31;5001748;28;20272;-54
2022/01/11 01:55:03;;;;;;;85.33;51.83;;;;;;;-0.63;100.00;102905.75;5000631;28;20229;-55
2022/01/11 01:57:29;;;;;;;82.87;49.43;;;;;;;0.33;100.00;102904.59;4997454;28;20228;-56
2022/01/11 01:59:56;;;;;;;94.10;52.23;;;;;;;0.34;97.27;102901.19;5000484;28;20275;-55
2022/01/11 02:02:23;;;;;;;93.37;51.37;;;;;;;0.10;99.19;102905.41;4998630;28;20240;-56
2022/01/11 02:04:50;;;;;;;91.20;51.80;;;;;;;-0.46;100.00;102909.66;4996821;28;20247;-55
2022/01/11 02:07:16;;;;;;;85.17;52.27;;;;;;;0.50;100.00;102913.59;4996304;28;20287;-55
2022/01/11 02:09:43;;;;;;;91.40;52.63;;;;;;;0.48;97.33;102911.78;5000595;28;20324;-56
2022/01/11 02:12:09;;;;;;;95.63;51.63;;;;;;;0.46;98.02;102905.63;4994545;28;20325;-56
2022/01/11 02:14:36;;;;;;;83.50;49.47;;;;;;;0.41;99.55;102911.22;4994550;28;20266;-54
2022/01/11 02:17:02;;;;;;;78.30;51.37;;;;;;;-0.54;96.71;102914.22;5001975;28;20323;-55
2022/01/11 02:19:30;;;;;;;85.07;49.70;;;;;;;-0.33;99.55;102915.91;5001382;28;20227;-55
2022/01/11 02:21:57;;;;;;;89.30;48.67;;;;;;;0.11;100.00;102926.19;4998606;28;20298;-55
2022/01/11 02:24:24;;;;;;;86.23;48.10;;;;;;;0.40;95.81;102917.19;5000077;28;20297;-53
2022/01/11 02:26:50;;;;;;;83.80;47.10;;;;;;;0.25;97.46;102924.69;4998142;28;20253;-53
2022/01/11 02:29:17;;;;;;;80.80;47.23;;;;;;;0.24;98.78;102925.44;5001725;28;20281;-57
2022/01/11 02:31:43;;;;;;;85.53;49.60;;;;;;;0.33;97.84;102935.59;4996348;28;20663;-55
2022/01/11 02:34:10;;;;;;;74.63;44.40;;;;;;;0.18;97.10;102933.63;4996796;28;20259;-55
2022/01/11 02:36:37;;;;;;;82.07;46.87;;;;;;;0.71;97.48;102930.72;5007956;28;20237;-52
2022/01/11 02:39:05;;;;;;;77.27;45.33;;;;;;;0.93;95.14;102936.66;4995064;28;20258;-54
2022/01/11 02:41:32;;;;;;;82.30;47.13;;;;;;;0.06;93.69;102937.84;4999351;28;20242;-54
2022/01/11 02:43:59;;;;;;;89.70;48.67;;;;;;;-0.16;97.17;102948.19;4999421;28;20809;-55
2022/01/11 02:46:26;;;;;;;84.03;46.20;;;;;;;0.21;97.17;102949.38;5000548;28;20255;-55
2022/01/11 02:48:55;;;;;;;84.17;46.70;;;;;;;-0.65;95.73;102951.16;4994907;28;20231;-55
2022/01/11 02:51:24;;;;;;;75.30;45.50;;;;;;;-1.26;99.35;102957.41;4996537;28;20243;-55
2022/01/11 02:53:52;;;;;;;80.73;47.63;;;;;;;-1.31;100.00;102949.28;4994746;28;20240;-55
2022/01/11 02:56:21;;;;;;;78.10;42.10;;;;;;;-1.32;100.00;102952.63;4996845;28;20772;-55
2022/01/11 02:58:47;;;;;;;87.03;47.23;;;;;;;-1.76;100.00;102962.69;5009074;28;20913;-55
2022/01/11 03:01:14;;;;;;;76.30;44.83;;;;;;;-1.70;100.00;102958.06;5000500;28;20231;-56
2022/01/11 03:03:40;;;;;;;86.40;46.63;;;;;;;-1.79;100.00;102957.31;4990298;28;20256;-55
2022/01/11 03:06:07;;;;;;;90.50;46.00;;;;;;;-1.19;100.00;102964.88;4997535;28;20259;-55
2022/01/11 03:08:35;;;;;;;82.87;43.47;;;;;;;-1.07;100.00;102965.88;4992840;28;20240;-54
2022/01/11 03:11:02;;;;;;;90.27;46.57;;;;;;;-0.55;100.00;102964.91;4994549;28;20231;-54
2022/01/11 03:13:30;;;;;;;88.10;45.97;;;;;;;-0.08;100.00;102970.34;4997174;28;20630;-56
2022/01/11 03:15:57;;;;;;;80.33;46.20;;;;;;;-0.72;100.00;102971.31;4997951;28;20829;-55
2022/01/11 03:18:23;;;;;;;78.80;43.43;;;;;;;-0.45;100.00;102969.16;4993047;28;20291;-55
2022/01/11 03:20:52;;;;;;;83.77;46.10;;;;;;;-0.79;100.00;102969.00;4995938;28;20227;-55
2022/01/11 03:23:18;;;;;;;88.30;47.37;;;;;;;-0.02;100.00;102972.50;5000317;28;20264;-53
2022/01/11 03:25:45;;;;;;;84.00;44.03;;;;;;;-0.62;100.00;102985.84;4994409;28;20232;-54
2022/01/11 03:28:12;;;;;;;95.23;46.83;;;;;;;-1.03;100.00;102978.22;4995017;28;20286;-55
2022/01/11 03:30:39;;;;;;;90.80;43.60;;;;;;;-0.32;100.00;102973.56;4997842;28;21018;-56
2022/01/11 03:33:08;;;;;;;91.93;46.40;;;;;;;-0.08;100.00;102985.84;4994016;28;20274;-58
2022/01/11 03:35:35;;;;;;;83.27;43.53;;;;;;;-0.80;100.00;102979.22;4993951;28;20219;-55
2022/01/11 03:38:03;;;;;;;86.50;41.17;;;;;;;-0.16;100.00;102986.91;4997564;28;20269;-55
2022/01/11 03:40:30;;;;;;;78.13;44.20;;;;;;;-0.24;99.58;102990.59;4992906;28;20260;-52
2022/01/11 03:42:57;;;;;;;89.00;41.83;;;;;;;-0.31;100.00;102988.31;4996524;28;20322;-56
2022/01/11 03:45:24;;;;;;;83.50;43.33;;;;;;;-0.49;100.00;102990.31;4994394;28;20247;-54
2022/01/11 03:47:53;;;;;;;83.13;43.37;;;;;;;-0.31;100.00;103001.22;4998401;28;20270;-63
2022/01/11 03:50:20;;;;;;;85.33;44.50;;;;;;;-0.03;100.00;102997.44;5000313;28;20239;-54
2022/01/11 03:52:47;;;;;;;74.00;39.87;;;;;;;-0.54;98.03;103000.25;5004084;28;20342;-56
2022/01/11 03:55:21;;;;;;;71.53;36.03;;;;;;;-0.99;99.57;103003.47;4997973;28;20774;-56
2022/01/11 03:57:48;;;;;;;80.60;39.63;;;;;;;-1.43;100.00;103014.38;4997077;28;20279;-61
2022/01/11 04:00:17;;;;;;;83.47;38.63;;;;;;;-1.46;100.00;103015.00;5002670;28;20236;-54
2022/01/11 04:02:44;;;;;;;70.70;38.20;;;;;;;-0.45;100.00;103006.94;4995885;28;20297;-55
2022/01/11 04:05:13;;;;;;;71.83;36.70;;;;;;;-0.69;100.00;103006.78;4992443;28;20298;-55
2022/01/11 04:07:40;;;;;;;72.67;38.17;;;;;;;-0.80;100.00;103007.59;5000613;28;20223;-56
2022/01/11 04:10:08;;;;;;;72.23;37.23;;;;;;;-1.16;100.00;103002.84;4998311;28;20619;-53
2022/01/11 04:12:35;;;;;;;68.23;33.63;;;;;;;-1.49;100.00;103014.72;4994591;28;20612;-56
2022/01/11 04:15:01;;;;;;;73.63;36.07;;;;;;;-1.43;100.00;103019.50;4995808;28;20334;-55
2022/01/11 04:17:28;;;;;;;66.70;33.23;;;;;;;-1.41;100.00;103018.84;4997992;28;20309;-54
2022/01/11 04:19:54;;;;;;;74.20;35.87;;;;;;;-0.50;100.00;103014.31;4995023;28;20305;-56
2022/01/11 04:22:22;;;;;;;67.53;35.80;;;;;;;-1.33;100.00;103024.66;4998904;28;20423;-56
2022/01/11 04:24:48;;;;;;;69.90;35.63;;;;;;;-0.52;100.00;103016.78;4987442;28;20268;-55
2022/01/11 04:27:14;;;;;;;66.40;32.97;;;;;;;0.03;100.00;103014.19;4996339;28;20259;-56
2022/01/11 04:29:40;;;;;;;61.50;33.50;;;;;;;0.21;98.66;103015.59;5000885;28;20266;-55
2022/01/11 04:32:08;;;;;;;80.47;34.47;;;;;;;0.30;98.14;103010.28;4994173;28;20290;-55
2022/01/11 04:34:34;;;;;;;58.73;33.07;;;;;;;-0.07;96.47;103018.63;4997939;28;20276;-54
2022/01/11 04:37:01;;;;;;;64.00;32.70;;;;;;;0.73;99.50;103010.94;5000760;28;20260;-57
2022/01/11 04:39:28;;;;;;;59.10;33.73;;;;;;;0.52;97.21;103013.69;4995512;28;21045;-55
2022/01/11 04:41:55;;;;;;;66.47;32.70;;;;;;;0.07;96.63;103016.22;5002343;28;20253;-56
2022/01/11 04:44:21;;;;;;;62.23;33.40;;;;;;;0.36;98.85;103006.47;4999228;28;20237;-54
2022/01/11 04:46:47;;;;;;;66.33;35.80;;;;;;;-0.04;99.10;103012.78;4992411;28;20258;-56
2022/01/11 04:49:14;;;;;;;59.93;34.10;;;;;;;-0.08;97.02;103016.81;5001765;28;20233;-55
2022/01/11 04:51:40;;;;;;;65.43;32.33;;;;;;;-0.26;98.36;103017.94;4998511;28;20262;-53
2022/01/11 04:54:07;;;;;;;70.80;31.93;;;;;;;-0.17;100.00;103018.69;4998990;28;20252;-55
2022/01/11 04:56:35;;;;;;;61.83;32.13;;;;;;;0.72;99.16;103007.47;5012082;28;20721;-56
2022/01/11 04:59:01;;;;;;;59.73;31.63;;;;;;;-0.03;98.52;103015.50;5013864;28;20230;-56
2022/01/11 05:01:29;;;;;;;66.33;34.90;;;;;;;-0.46;98.98;103016.34;5013677;28;20302;-53
2022/01/11 05:03:55;;;;;;;61.80;31.57;;;;;;;-0.81;98.85;103021.22;4998904;28;20313;-53
2022/01/11 05:06:22;;;;;;;64.60;30.80;;;;;;;-0.61;100.00;103031.50;4996554;28;20314;-54
2022/01/11 05:08:48;;;;;;;70.23;31.73;;;;;;;-0.71;100.00;103023.78;5002636;28;20229;-54
2022/01/11 05:11:15;;;;;;;69.50;32.83;;;;;;;0.05;99.57;103020.38;4997217;28;20249;-54
2022/01/11 05:13:43;;;;;;;63.07;31.10;;;;;;;0.16;100.00;103028.16;4996616;28;20240;-56
2022/01/11 05:16:09;;;;;;;69.13;33.00;;;;;;;-0.07;97.14;103028.97;4997734;28;20301;-56
2022/01/11 05:18:36;;;;;;;60.73;32.30;;;;;;;-0.13;98.20;103030.16;5001050;28;20740;-54
2022/01/11 05:21:03;;;;;;;66.77;33.10;;;;;;;0.11;100.00;103031.19;4998016;28;20659;-56
2022/01/11 05:23:29;;;;;;;63.27;31.20;;;;;;;0.07;98.16;103036.88;5006072;28;20257;-54
2022/01/11 05:25:55;;;;;;;60.93;31.23;;;;;;;0.21;98.56;103041.44;4998624;28;20244;-54
2022/01/11 05:28:22;;;;;;;69.37;33.23;;;;;;;-0.53;99.98;103040.78;4996558;28;20236;-54
2022/01/11 05:30:49;;;;;;;64.87;34.00;;;;;;;-1.13;99.11;103055.56;4999194;28;20230;-55
2022/01/11 05:33:16;;;;;;;62.53;30.20;;;;;;;-1.21;100.00;103046.31;4994957;28;20239;-56
2022/01/11 05:35:42;;;;;;;63.63;31.83;;;;;;;-1.36;100.00;103053.66;5001705;28;20263;-55
2022/01/11 05:38:10;;;;;;;60.13;28.47;;;;;;;-1.06;100.00;103059.56;4994179;28;20297;-55
2022/01/11 05:40:37;;;;;;;69.57;31.63;;;;;;;-1.07;100.00;103056.09;4995878;28;20722;-54
2022/01/11 05:43:03;;;;;;;66.67;29.17;;;;;;;-0.13;100.00;103049.13;5002346;28;20270;-56
2022/01/11 05:45:29;;;;;;;59.73;28.53;;;;;;;0.30;100.00;103052.50;4995977;28;20247;-55
2022/01/11 05:47:58;;;;;;;59.23;29.90;;;;;;;0.21;98.44;103057.88;4995227;28;20736;-58
2022/01/11 05:50:25;;;;;;;64.23;30.53;;;;;;;-0.13;95.43;103064.63;4994717;28;20246;-55
2022/01/11 05:52:51;;;;;;;53.70;28.03;;;;;;;0.12;99.24;103066.56;5003351;28;20825;-56
2022/01/11 05:55:18;;;;;;;56.17;30.57;;;;;;;-0.53;98.04;103066.59;5000686;28;20376;-54
2022/01/11 05:57:44;;;;;;;62.00;31.40;;;;;;;-0.82;100.00;103061.59;4994639;28;20312;-54
2022/01/11 06:00:14;;;;;;;56.93;28.47;;;;;;;-0.59;100.00;103066.06;4999327;28;20229;-56
2022/01/11 06:02:41;;;;;;;63.10;30.77;;;;;;;-0.74;100.00;103060.56;5001170;28;20283;-53
2022/01/11 06:05:10;;;;;;;68.97;30.13;;;;;;;-0.62;100.00;103064.91;4993856;28;20532;-56
2022/01/11 06:07:37;;;;;;;73.47;31.40;;;;;;;0.02;100.00;103069.19;4999124;28;20975;-56
2022/01/11 06:10:04;;;;;;;62.53;29.83;;;;;;;-0.24;98.12;103078.34;4997256;28;20234;-56
2022/01/11 06:12:30;;;;;;;64.57;30.50;;;;;;;-0.90;99.28;103075.53;4998864;28;20232;-54
2022/01/11 06:14:56;;;;;;;56.07;27.57;;;;;;;-0.99;99.89;103069.59;4997331;28;20292;-54
2022/01/11 06:17:22;;;;;;;63.67;32.03;;;;;;;-1.18;100.00;103079.16;4997837;28;20245;-55
2022/01/11 06:19:49;;;;;;;63.53;30.17;;;;;;;-1.21;100.00;103079.81;4998540;28;20232;-54
2022/01/11 06:22:16;;;;;;;55.50;28.03;;;;;;;-1.45;100.00;103084.66;4999964;28;20899;-55
2022/01/11 06:24:43;;;;;;;61.73;31.30;;;;;;;-1.56;100.00;103090.59;4994229;28;20259;-56
2022/01/11 06:27:09;;;;;;;62.33;30.47;;;;;;;-1.77;100.00;103083.59;4994005;28;20282;-54
2022/01/11 06:29:35;;;;;;;55.57;28.33;;;;;;;-1.92;100.00;103090.88;5000066;28;20256;-53
2022/01/11 06:32:02;;;;;;;60.60;31.37;;;;;;;-1.66;100.00;103087.97;5003085;28;20970;-56
2022/01/11 06:34:28;;;;;;;59.90;32.33;;;;;;;-1.41;100.00;103090.09;5000926;28;20243;-54
2022/01/11 06:36:54;;;;;;;59.53;29.63;;;;;;;-1.57;100.00;103093.94;5013841;28;20900;-54
2022/01/11 06:39:22;;;;;;;65.33;31.70;;;;;;;-1.70;100.00;103091.97;4998871;28;20263;-58
2022/01/11 06:41:48;;;;;;;56.40;29.07;;;;;;;-1.32;100.00;103096.94;5007823;28;20224;-55
2022/01/11 06:44:15;;;;;;;55.57;29.63;;;;;;;-1.61;100.00;103096.13;4998748;28;20737;-53
2022/01/11 06:46:41;;;;;;;60.67;29.60;;;;;;;-1.26;100.00;103091.41;5004553;28;20241;-54
2022/01/11 06:49:07;;;;;;;58.20;28.50;;;;;;;-0.67;100.00;103087.75;4998377;28;20848;-55
2022/01/11 06:51:35;;;;;;;57.33;26.53;;;;;;;-0.51;99.48;103093.38;5000389;28;20720;-55
2022/01/11 06:54:01;;;;;;;54.70;26.90;;;;;;;-0.59;100.00;103089.28;4998404;28;20322;-54
2022/01/11 06:56:29;;;;;;;51.03;28.33;;;;;;;-0.81;100.00;103104.69;4998638;28;20378;-56
2022/01/11 06:58:55;;;;;;;51.20;27.67;;;;;;;-1.27;100.00;103110.19;4996692;28;20948;-56
2022/01/11 07:01:21;;;;;;;50.40;25.83;;;;;;;-0.92;100.00;103104.53;4997113;28;20266;-56
2022/01/11 07:03:48;;;;;;;55.87;27.47;;;;;;;-1.04;100.00;103113.06;4999410;28;20276;-55
2022/01/11 07:06:14;;;;;;;50.53;27.23;;;;;;;-1.24;100.00;103120.78;4990693;28;20241;-55
2022/01/11 07:08:40;;;;;;;51.00;25.90;;;;;;;-1.45;100.00;103131.03;4994187;28;20372;-54
2022/01/11 07:11:06;;;;;;;54.43;27.70;;;;;;;-1.58;100.00;103127.28;4996009;28;20998;-54
2022/01/11 07:13:34;;;;;;;52.17;28.43;;;;;;;-0.90;100.00;103124.53;4995951;28;20259;-56
2022/01/11 07:16:01;;;;;;;57.20;28.17;;;;;;;-1.02;100.00;103124.41;4990226;28;20323;-53
2022/01/11 07:18:27;;;;;;;55.83;26.67;;;;;;;-1.27;100.00;103123.97;4994214;28;20248;-57
2022/01/11 07:20:54;;;;;;;46.57;25.07;;;;;;;-0.55;100.00;103119.72;4993637;28;20899;-55
2022/01/11 07:23:20;;;;;;;48.47;25.20;;;;;;;-0.23;100.00;103129.19;4997046;28;20254;-56
2022/01/11 07:25:46;;;;;;;47.30;26.20;;;;;;;-0.30;98.96;103129.47;4987057;28;20266;-54
2022/01/11 07:28:15;;;;;;;46.03;24.73;;;;;;;-0.28;98.42;103127.91;4982765;28;20291;-54
2022/01/11 07:30:43;;;;;;;48.37;24.07;;;;;;;-0.13;98.08;103136.00;4996525;28;20783;-54
2022/01/11 07:33:09;;;;;;;47.73;25.80;;;;;;;-0.53;97.22;103143.06;4998191;28;20607;-53
2022/01/11 07:35:36;;;;;;;41.50;24.40;;;;;;;-0.03;99.94;103139.47;4993958;28;20252;-55
2022/01/11 07:38:03;;;;;;;53.07;26.17;;;;;;;-0.06;98.27;103146.06;4998872;28;20249;-54
2022/01/11 07:40:29;;;;;;;44.50;26.63;;;;;;;-0.35;100.00;103143.66;4989403;28;20236;-55
2022/01/11 07:42:55;;;;;;;48.13;24.77;;;;;;;0.23;100.00;103146.69;5001038;28;20236;-55
2022/01/11 07:45:22;;;;;;;43.60;24.00;;;;;;;-0.23;96.98;103156.69;4995885;28;20272;-54
2022/01/11 07:47:50;;;;;;;49.50;25.67;;;;;;;-0.45;96.73;103170.41;4997951;28;20614;-56
2022/01/11 07:50:16;;;;;;;47.37;23.77;;;;;;;-0.89;96.73;103174.44;4991246;28;20233;-54
2022/01/11 07:52:42;;;;;;;48.70;23.47;;;;;;;-1.28;97.09;103176.31;4997058;28;20252;-55
2022/01/11 07:55:09;;;;;;;43.40;25.63;;;;;;;-1.67;100.00;103173.75;5003489;28;20322;-55
2022/01/11 07:57:35;;;;;;;51.70;25.07;;;;;;;-1.93;100.00;103174.94;5002153;28;20231;-57
2022/01/11 08:00:02;;;;;;;46.27;24.80;;;;;;;-2.06;100.00;103176.28;4999816;28;20313;-56
2022/01/11 08:02:28;;;;;;;44.27;24.23;;;;;;;-2.05;100.00;103172.94;4999296;28;20243;-55
2022/01/11 08:04:56;;;;;;;45.17;23.17;;;;;;;-2.07;100.00;103183.09;5005237;28;20692;-56
2022/01/11 08:07:23;;;;;;;43.43;24.43;;;;;;;-2.07;100.00;103175.38;5000341;28;20262;-56
2022/01/11 08:09:49;;;;;;;45.93;24.97;;;;;;;-2.08;100.00;103183.84;5001404;28;20238;-55
2022/01/11 08:12:15;;;;;;;48.27;24.47;;;;;;;-2.06;100.00;103184.91;5014200;28;20251;-57
2022/01/11 08:14:42;;;;;;;51.30;25.17;;;;;;;-1.88;100.00;103182.16;5014877;28;20243;-56
2022/01/11 08:17:08;;;;;;;49.23;25.73;;;;;;;-1.47;100.00;103184.13;5022889;28;20235;-53
2022/01/11 08:19:35;;;;;;;44.40;23.63;;;;;;;-0.97;100.00;103179.84;5022488;28;20236;-55
2022/01/11 08:22:03;;;;;;;48.77;25.93;;;;;;;-0.77;100.00;103178.06;5018844;28;20253;-56
2022/01/11 08:24:29;;;;;;;40.57;23.17;;;;;;;0.33;100.00;103171.59;5019007;28;20230;-54
2022/01/11 08:26:56;;;;;;;47.30;24.80;;;;;;;-0.23;94.63;103178.25;4996019;28;20244;-56
2022/01/11 08:29:23;;;;;;;42.93;22.50;;;;;;;0.67;96.17;103176.84;5003064;28;20621;-55
2022/01/11 08:31:50;;;;;;;35.47;20.73;;;;;;;1.15;93.70;103186.59;5002520;28;20851;-56
2022/01/11 08:34:17;;;;;;;35.73;21.70;;;;;;;0.79;93.89;103185.56;4998120;28;20245;-55
2022/01/11 08:36:45;;;;;;;40.93;23.40;;;;;;;0.24;92.51;103186.34;4998015;28;21250;-56
2022/01/11 08:39:13;;;;;;;36.20;21.23;;;;;;;0.58;90.87;103199.38;5004201;28;20274;-55
2022/01/11 08:41:40;;;;;;;42.10;22.10;;;;;;;1.06;92.05;103201.44;5001145;28;20241;-55
2022/01/11 08:44:09;;;;;;;40.73;22.17;;;;;;;0.80;89.39;103197.69;4996205;28;20267;-55
2022/01/11 08:46:36;;;;;;;39.23;21.23;;;;;;;0.96;93.17;103197.22;4998491;28;20323;-54
2022/01/11 08:49:02;;;;;;;37.27;19.77;;;;;;;1.32;91.23;103196.53;4994667;28;20244;-54
2022/01/11 08:51:29;;;;;;;41.00;22.63;;;;;;;0.82;87.58;103201.31;5007849;28;20228;-56
2022/01/11 08:53:55;;;;;;;36.60;21.73;;;;;;;0.73;90.65;103200.59;5005349;28;20231;-56
2022/01/11 08:56:23;;;;;;;38.87;21.67;;;;;;;0.14;91.34;103195.06;5012197;28;20240;-56
2022/01/11 08:58:49;;;;;;;49.57;24.73;;;;;;;0.09;94.01;103200.63;5016455;28;20259;-56
2022/01/11 09:01:16;;;;;;;42.13;23.43;;;;;;;0.29;91.76;103199.66;5012728;28;20237;-56
2022/01/11 09:03:42;;;;;;;39.97;21.33;;;;;;;-0.37;91.17;103209.75;5002333;28;20282;-55
2022/01/11 09:06:09;;;;;;;36.43;22.93;;;;;;;-0.62;92.35;103206.81;5005387;28;20240;-56
2022/01/11 09:08:36;;;;;;;41.83;22.03;;;;;;;-0.58;98.39;103212.34;5006046;28;20228;-55
2022/01/11 09:11:04;;;;;;;38.53;23.67;;;;;;;-0.64;98.95;103206.66;4997170;28;20242;-56
2022/01/11 09:13:32;;;;;;;44.73;22.53;;;;;;;-1.06;97.31;103204.81;5001313;28;20232;-57
2022/01/11 09:15:58;;;;;;;37.30;23.10;;;;;;;-1.08;96.90;103200.31;4998474;28;20283;-57
2022/01/11 09:18:25;;;;;;;37.60;21.43;;;;;;;-1.44;99.16;103211.81;4998779;28;20237;-55
2022/01/11 09:20:51;;;;;;;36.57;20.50;;;;;;;-1.50;100.00;103207.03;4994380;28;20263;-56
2022/01/11 09:23:17;;;;;;;38.97;22.40;;;;;;;-1.47;100.00;103212.47;4993027;28;20268;-56
2022/01/11 09:25:45;;;;;;;44.50;23.40;;;;;;;-1.27;100.00;103214.19;5000169;28;20277;-56
2022/01/11 09:28:12;;;;;;;38.27;24.00;;;;;;;-1.00;100.00;103215.66;5002060;28;20313;-56
2022/01/11 09:30:40;;;;;;;40.43;22.97;;;;;;;-0.67;100.00;103211.56;4998595;28;20296;-54
2022/01/11 09:33:07;;;;;;;39.40;24.13;;;;;;;-0.73;100.00;103218.81;4992557;28;20244;-55
2022/01/11 09:35:33;;;;;;;44.83;24.47;;;;;;;-0.98;100.00;103208.97;5002905;28;20251;-54
2022/01/11 09:37:59;;;;;;;42.67;23.93;;;;;;;-1.05;98.52;103211.81;5001068;28;20286;-55
2022/01/11 09:40:26;;;;;;;35.03;20.77;;;;;;;-1.34;98.90;103206.69;4997504;28;20233;-56
2022/01/11 09:42:53;;;;;;;42.23;22.83;;;;;;;-1.57;99.85;103202.13;4999196;28;20615;-56
2022/01/11 09:45:20;;;;;;;40.77;23.30;;;;;;;-1.38;100.00;103211.44;5005380;28;20240;-56
2022/01/11 09:47:48;;;;;;;39.93;24.23;;;;;;;-1.32;100.00;103202.59;5010686;28;21306;-56
2022/01/11 09:50:15;;;;;;;45.87;22.50;;;;;;;-1.25;100.00;103206.59;5001579;28;20231;-58
2022/01/11 09:52:42;;;;;;;43.00;24.90;;;;;;;-1.00;100.00;103204.44;5001697;28;20286;-54
2022/01/11 09:55:11;;;;;;;40.77;24.17;;;;;;;-1.01;99.17;103212.97;5000100;28;20267;-55
2022/01/11 09:57:38;;;;;;;45.40;23.40;;;;;;;-0.96;100.00;103203.94;5001731;28;20235;-57
2022/01/11 10:00:07;;;;;;;39.17;22.37;;;;;;;-0.83;100.00;103211.06;4991805;28;21000;-53
2022/01/11 10:02:34;;;;;;;39.63;20.73;;;;;;;-0.77;100.00;103211.59;4997917;28;20539;-56
2022/01/11 10:05:05;;;;;;;36.83;21.80;;;;;;;-0.89;98.79;103202.78;4998998;28;20270;-55
2022/01/11 10:07:36;;;;;;;38.77;20.73;;;;;;;-0.91;99.36;103199.16;5002070;28;20263;-60
2022/01/11 10:10:04;;;;;;;42.17;22.87;;;;;;;-1.05;98.09;103201.50;4995802;28;20233;-59
2022/01/11 10:12:41;;;;;;;35.10;20.17;;;;;;;-1.34;98.08;103200.63;4999017;28;20298;-56
2022/01/11 10:15:08;;;;;;;35.17;20.83;;;;;;;-1.49;99.30;103200.22;4998218;28;20240;-56
2022/01/11 10:17:40;;;;;;;37.40;21.27;;;;;;;-1.34;100.00;103191.22;4997365;28;20698;-54
2022/01/11 10:20:10;;;;;;;39.80;21.63;;;;;;;-0.88;100.00;103200.31;5007460;28;20272;-55
2022/01/11 10:22:45;;;;;;;37.10;20.73;;;;;;;-0.68;99.35;103203.69;5004440;28;20239;-55
2022/01/11 10:25:11;;;;;;;43.03;22.87;;;;;;;-0.66;97.40;103197.91;5001775;28;20232;-54
2022/01/11 10:27:38;;;;;;;33.47;21.17;;;;;;;-0.28;99.17;103198.53;4999923;28;20984;-54
2022/01/11 10:30:07;;;;;;;34.17;19.87;;;;;;;0.18;97.65;103196.22;5007508;28;20313;-55
2022/01/11 10:32:35;;;;;;;34.70;21.33;;;;;;;-0.28;93.84;103213.06;5008519;28;20224;-55
2022/01/11 10:35:04;;;;;;;35.63;20.73;;;;;;;-0.81;95.30;103219.81;5027849;28;20497;-55
2022/01/11 10:37:35;;;;;;;34.40;22.63;;;;;;;-1.12;96.40;103208.53;5012394;28;20236;-55
2022/01/11 10:40:05;;;;;;;33.97;19.73;;;;;;;-1.41;97.83;103214.66;5023580;28;20224;-58
2022/01/11 10:42:33;;;;;;;35.70;21.03;;;;;;;-1.37;98.69;103218.41;5025994;28;20211;-56
2022/01/11 10:45:03;;;;;;;37.13;20.47;;;;;;;-1.37;99.14;103202.94;5022346;28;20262;-56
2022/01/11 10:47:31;;;;;;;36.50;20.33;;;;;;;-1.36;98.50;103202.19;5022377;28;20249;-55
2022/01/11 10:50:00;;;;;;;36.40;19.70;;;;;;;-1.45;98.54;103205.75;5020601;28;20240;-56
2022/01/11 10:52:28;;;;;;;40.67;24.10;;;;;;;-1.34;100.00;103200.63;5017155;28;20231;-56
2022/01/11 10:54:56;;;;;;;38.37;21.97;;;;;;;-1.10;100.00;103196.69;5016088;28;20241;-58
2022/01/11 10:57:26;;;;;;;35.80;19.37;;;;;;;-1.10;98.27;103192.44;5014690;28;20240;-56
2022/01/11 11:00:15;;;;;;;36.90;21.87;;;;;;;-1.11;97.79;103195.81;5019672;28;20232;-56
2022/01/11 11:02:42;;;;;;;37.53;21.43;;;;;;;-1.06;98.48;103199.66;5016936;28;20224;-56
2022/01/11 11:05:15;;;;;;;42.63;22.00;;;;;;;-0.80;100.00;103203.59;5016704;28;20278;-54
2022/01/11 11:07:42;;;;;;;32.73;19.63;;;;;;;-0.62;97.50;103199.97;5020640;28;20240;-56
2022/01/11 11:10:11;;;;;;;32.90;19.43;;;;;;;0.39;100.00;103195.34;5022177;28;20245;-56